Time;durP1;ratioP1;P1;durP2;ratioP2;P2;SDS_P1;SDS_P2;PMS_P1;PMS_P2;Temp;Humidity;BMP_temperature;BMP_pressure;BME280_temperature;BME280_humidity;BME280_pressure;Samples;Min_cycle;Max_cycle;Signal;HPM_P1;HPM_P2
2024/03/20 00:01:33;;;;;;;10.80;7.25;;;;;;;;;;5052594;28;20091;-56
2024/03/20 00:04:18;;;;;;;11.05;6.55;;;;;;;;;;5055311;28;20065;-54
2024/03/20 00:06:57;;;;;;;10.27;6.80;;;;;;;;;;5044698;28;20100;-57
2024/03/20 00:09:36;;;;;;;11.30;6.50;;;;;;;;;;5053108;28;20056;-55
2024/03/20 00:12:19;;;;;;;12.10;7.10;;;;;;;;;;5054410;28;20041;-54
2024/03/20 00:15:00;;;;;;;10.43;7.30;;;;;;;;;;5045909;28;20469;-55
2024/03/20 00:17:44;;;;;;;10.68;6.93;;;;;;;;;;5052296;28;20052;-56
2024/03/20 00:20:25;;;;;;;11.85;7.65;;;;;;;;;;5054417;28;20049;-56
2024/03/20 00:23:07;;;;;;;11.18;7.13;;;;;;;;;;5048184;28;20051;-55
2024/03/20 00:25:44;;;;;;;10.18;6.68;;;;;;;;;;5050082;28;20417;-55
2024/03/20 00:28:24;;;;;;;12.70;6.97;;;;;;;;;;5053228;28;20055;-56
2024/03/20 00:31:05;;;;;;;11.32;7.45;;;;;;;;;;5047800;28;20114;-56
2024/03/20 00:33:43;;;;;;;10.60;6.80;;;;;;;;;;5053568;28;20103;-55
2024/03/20 00:36:38;;;;;;;12.20;7.18;;;;;;;;;;5054457;28;20060;-56
2024/03/20 00:39:08;;;;;;;11.80;6.63;;;;;;;;;;5049568;28;20076;-56
2024/03/20 00:41:35;;;;;;;11.35;7.38;;;;;;;;;;5050846;28;20385;-54
2024/03/20 00:44:02;;;;;;;9.70;6.10;;;;;;;;;;5050790;28;20489;-54
2024/03/20 00:46:29;;;;;;;11.38;7.05;;;;;;;;;;5050363;28;20059;-63
2024/03/20 00:48:56;;;;;;;13.25;7.50;;;;;;;;;;5047998;28;20049;-56
2024/03/20 00:51:24;;;;;;;10.02;6.15;;;;;;;;;;5040630;28;20052;-52
2024/03/20 00:53:51;;;;;;;8.93;6.05;;;;;;;;;;5041270;28;20049;-55
2024/03/20 00:56:18;;;;;;;9.95;6.20;;;;;;;;;;5042799;28;20049;-57
2024/03/20 00:58:45;;;;;;;10.05;6.32;;;;;;;;;;5042930;28;20064;-55
2024/03/20 01:01:13;;;;;;;9.13;6.05;;;;;;;;;;5050066;28;20045;-54
2024/03/20 01:03:40;;;;;;;11.75;6.93;;;;;;;;;;5050887;28;20044;-52
2024/03/20 01:06:07;;;;;;;12.20;6.95;;;;;;;;;;5040844;28;20052;-54
2024/03/20 01:08:36;;;;;;;11.60;6.93;;;;;;;;;;5035978;28;20045;-56
2024/03/20 01:11:03;;;;;;;10.15;6.53;;;;;;;;;;5041236;28;20052;-55
2024/03/20 01:13:30;;;;;;;11.43;6.90;;;;;;;;;;5050795;28;20099;-56
2024/03/20 01:15:57;;;;;;;9.40;5.90;;;;;;;;;;5041529;28;20493;-55
2024/03/20 01:18:24;;;;;;;9.45;6.30;;;;;;;;;;5057783;28;20437;-55
2024/03/20 01:20:51;;;;;;;12.57;6.82;;;;;;;;;;5050177;28;20052;-52
2024/03/20 01:23:18;;;;;;;9.80;6.18;;;;;;;;;;5050260;28;20519;-54
2024/03/20 01:25:47;;;;;;;12.48;7.10;;;;;;;;;;5046583;28;20041;-52
2024/03/20 01:28:14;;;;;;;10.02;6.45;;;;;;;;;;5050639;28;20343;-54
2024/03/20 01:30:41;;;;;;;9.70;6.45;;;;;;;;;;5044893;28;20413;-58
2024/03/20 01:33:08;;;;;;;9.40;5.57;;;;;;;;;;5050672;28;20049;-57
2024/03/20 01:35:35;;;;;;;11.38;6.88;;;;;;;;;;5063066;28;20513;-53
2024/03/20 01:38:01;;;;;;;8.70;6.10;;;;;;;;;;5054585;28;20060;-53
2024/03/20 01:40:29;;;;;;;10.10;6.55;;;;;;;;;;5049971;28;20060;-55
2024/03/20 01:42:57;;;;;;;10.32;6.45;;;;;;;;;;5055830;28;20143;-54
2024/03/20 01:45:24;;;;;;;9.80;6.32;;;;;;;;;;5065239;28;20049;-52
2024/03/20 01:47:51;;;;;;;9.85;6.60;;;;;;;;;;5050071;28;20052;-52
2024/03/20 01:50:18;;;;;;;9.68;6.03;;;;;;;;;;5057905;28;20055;-56
2024/03/20 01:52:53;;;;;;;9.05;6.10;;;;;;;;;;5069184;28;20407;-53
2024/03/20 01:55:21;;;;;;;11.57;6.43;;;;;;;;;;5045726;28;20384;-52
2024/03/20 01:57:48;;;;;;;9.57;6.13;;;;;;;;;;5042718;28;20049;-54
2024/03/20 02:00:21;;;;;;;10.38;6.00;;;;;;;;;;5057931;28;20045;-56
2024/03/20 02:02:48;;;;;;;9.93;6.13;;;;;;;;;;5052836;28;20067;-52
2024/03/20 02:05:16;;;;;;;9.70;6.47;;;;;;;;;;5066802;28;20045;-58
2024/03/20 02:07:43;;;;;;;10.00;6.47;;;;;;;;;;5044522;28;20183;-55
2024/03/20 02:10:11;;;;;;;8.63;5.65;;;;;;;;;;5056725;28;20052;-54
2024/03/20 02:12:38;;;;;;;10.32;6.43;;;;;;;;;;5067720;28;20053;-53
2024/03/20 02:15:09;;;;;;;9.77;5.82;;;;;;;;;;5068636;28;20415;-54
2024/03/20 02:17:38;;;;;;;9.50;6.05;;;;;;;;;;5047801;28;20049;-54
2024/03/20 02:20:06;;;;;;;12.43;6.07;;;;;;;;;;5050216;28;20408;-56
2024/03/20 02:22:41;;;;;;;11.35;6.47;;;;;;;;;;5049626;28;20556;-58
2024/03/20 02:25:09;;;;;;;8.45;5.10;;;;;;;;;;5063544;28;20052;-53
2024/03/20 02:27:36;;;;;;;10.68;5.93;;;;;;;;;;5057300;28;20056;-57
2024/03/20 02:30:04;;;;;;;8.95;5.15;;;;;;;;;;5055235;28;20052;-55
2024/03/20 02:32:31;;;;;;;8.10;5.07;;;;;;;;;;5068451;28;20102;-56
2024/03/20 02:34:58;;;;;;;7.55;5.00;;;;;;;;;;5069768;28;20480;-56
2024/03/20 02:37:25;;;;;;;9.75;5.93;;;;;;;;;;5062998;28;20045;-54
2024/03/20 02:39:53;;;;;;;8.07;5.00;;;;;;;;;;5053626;28;20340;-54
2024/03/20 02:42:21;;;;;;;10.32;5.13;;;;;;;;;;5067627;28;20389;-57
2024/03/20 02:44:48;;;;;;;9.18;5.03;;;;;;;;;;5071093;28;20397;-54
2024/03/20 02:47:15;;;;;;;8.38;4.93;;;;;;;;;;5070926;28;20044;-53
2024/03/20 02:49:42;;;;;;;9.32;5.78;;;;;;;;;;5068983;28;20045;-50
2024/03/20 02:52:09;;;;;;;7.97;5.18;;;;;;;;;;5058915;28;20054;-55
2024/03/20 02:54:36;;;;;;;10.07;5.72;;;;;;;;;;5042489;28;20420;-53
2024/03/20 02:57:05;;;;;;;7.97;4.40;;;;;;;;;;5052548;28;20041;-54
2024/03/20 02:59:32;;;;;;;7.38;4.65;;;;;;;;;;5067641;28;20045;-51
2024/03/20 03:01:58;;;;;;;8.13;4.72;;;;;;;;;;5055797;28;20053;-54
2024/03/20 03:04:25;;;;;;;10.13;4.70;;;;;;;;;;5040748;28;20053;-54
2024/03/20 03:06:52;;;;;;;8.20;4.97;;;;;;;;;;5046160;28;20044;-51
2024/03/20 03:09:19;;;;;;;9.88;5.22;;;;;;;;;;5053597;28;20510;-55
2024/03/20 03:11:47;;;;;;;7.00;4.57;;;;;;;;;;5052630;28;20064;-52
2024/03/20 03:14:16;;;;;;;8.15;5.05;;;;;;;;;;5049718;28;20420;-58
2024/03/20 03:16:43;;;;;;;7.22;4.30;;;;;;;;;;5058115;28;20051;-52
2024/03/20 03:19:10;;;;;;;9.60;4.72;;;;;;;;;;5048366;28;20149;-58
2024/03/20 03:21:37;;;;;;;6.70;4.50;;;;;;;;;;5067487;28;20054;-57
2024/03/20 03:24:06;;;;;;;7.10;4.65;;;;;;;;;;5057302;28;20084;-51
2024/03/20 03:26:33;;;;;;;6.20;4.63;;;;;;;;;;5060183;28;20109;-55
2024/03/20 03:29:00;;;;;;;7.68;4.10;;;;;;;;;;5069445;28;20044;-55
2024/03/20 03:31:28;;;;;;;7.65;4.75;;;;;;;;;;5055255;28;20060;-55
2024/03/20 03:33:55;;;;;;;10.98;4.78;;;;;;;;;;5049562;28;20052;-55
2024/03/20 03:36:22;;;;;;;9.93;4.30;;;;;;;;;;5057929;28;20044;-53
2024/03/20 03:38:49;;;;;;;7.70;4.20;;;;;;;;;;5068667;28;20056;-54
2024/03/20 03:41:16;;;;;;;8.15;4.93;;;;;;;;;;5069355;28;20500;-54
2024/03/20 03:43:43;;;;;;;7.35;4.30;;;;;;;;;;5065642;28;20056;-52
2024/03/20 03:46:10;;;;;;;7.35;4.30;;;;;;;;;;5063068;28;20055;-54
2024/03/20 03:48:38;;;;;;;8.77;4.70;;;;;;;;;;5057386;28;20049;-55
2024/03/20 03:51:06;;;;;;;7.10;4.60;;;;;;;;;;5064178;28;20497;-51
2024/03/20 03:53:34;;;;;;;8.10;4.93;;;;;;;;;;5067230;28;20049;-55
2024/03/20 03:56:01;;;;;;;8.40;4.90;;;;;;;;;;5065904;28;20065;-54
2024/03/20 03:58:28;;;;;;;11.50;4.93;;;;;;;;;;5059875;28;20052;-59
2024/03/20 04:00:55;;;;;;;7.30;4.45;;;;;;;;;;5062176;28;20067;-51
2024/03/20 04:03:27;;;;;;;7.18;4.68;;;;;;;;;;5066505;28;20047;-57
2024/03/20 04:05:59;;;;;;;8.70;4.80;;;;;;;;;;5067901;28;20052;-55
2024/03/20 04:08:26;;;;;;;8.18;4.55;;;;;;;;;;5055961;28;20048;-54
2024/03/20 04:10:53;;;;;;;7.72;4.97;;;;;;;;;;5057867;28;20098;-58
2024/03/20 04:13:20;;;;;;;8.80;4.70;;;;;;;;;;5051505;28;20053;-56
2024/03/20 04:15:47;;;;;;;8.63;5.30;;;;;;;;;;5054494;28;20060;-56
2024/03/20 04:18:17;;;;;;;7.03;4.13;;;;;;;;;;5050738;28;20052;-56
2024/03/20 04:20:44;;;;;;;7.20;4.50;;;;;;;;;;5064073;28;20048;-55
2024/03/20 04:23:12;;;;;;;9.82;5.05;;;;;;;;;;5066963;28;20041;-55
2024/03/20 04:25:39;;;;;;;7.78;4.75;;;;;;;;;;5058503;28;20045;-55
2024/03/20 04:28:07;;;;;;;8.70;4.70;;;;;;;;;;5063324;28;20052;-55
2024/03/20 04:30:34;;;;;;;8.77;5.03;;;;;;;;;;5063789;28;20052;-53
2024/03/20 04:33:01;;;;;;;7.53;4.40;;;;;;;;;;5067636;28;20116;-51
2024/03/20 04:35:28;;;;;;;9.75;5.40;;;;;;;;;;5064351;28;20049;-56
2024/03/20 04:37:55;;;;;;;8.23;4.30;;;;;;;;;;5066355;28;20408;-53
2024/03/20 04:40:24;;;;;;;7.85;4.18;;;;;;;;;;5066799;28;20048;-57
2024/03/20 04:42:51;;;;;;;6.72;4.13;;;;;;;;;;5066115;28;20412;-51
2024/03/20 04:45:18;;;;;;;7.85;4.30;;;;;;;;;;5060206;28;20478;-56
2024/03/20 04:47:45;;;;;;;8.85;4.72;;;;;;;;;;5052475;28;20408;-54
2024/03/20 04:50:13;;;;;;;8.82;4.47;;;;;;;;;;5056377;28;20045;-54
2024/03/20 04:52:40;;;;;;;8.02;4.20;;;;;;;;;;5064366;28;20049;-55
2024/03/20 04:55:08;;;;;;;6.82;4.00;;;;;;;;;;5060769;28;20052;-57
2024/03/20 04:57:36;;;;;;;7.70;4.63;;;;;;;;;;5050026;28;20075;-58
2024/03/20 05:00:11;;;;;;;6.57;3.72;;;;;;;;;;5065943;28;20476;-53
2024/03/20 05:02:39;;;;;;;7.10;3.72;;;;;;;;;;5062169;28;20048;-54
2024/03/20 05:05:06;;;;;;;6.57;4.50;;;;;;;;;;5060670;28;20092;-54
2024/03/20 05:07:33;;;;;;;7.47;4.07;;;;;;;;;;5062203;28;20045;-54
2024/03/20 05:10:00;;;;;;;7.95;4.03;;;;;;;;;;5058411;28;20052;-55
2024/03/20 05:12:27;;;;;;;7.10;4.18;;;;;;;;;;5062168;28;20087;-55
2024/03/20 05:14:55;;;;;;;9.57;4.85;;;;;;;;;;5064984;28;20052;-56
2024/03/20 05:17:21;;;;;;;11.27;5.45;;;;;;;;;;5065358;28;20392;-55
2024/03/20 05:19:48;;;;;;;6.75;4.55;;;;;;;;;;5062154;28;20041;-57
2024/03/20 05:22:14;;;;;;;7.07;4.47;;;;;;;;;;5060968;28;20514;-55
2024/03/20 05:24:41;;;;;;;6.65;4.05;;;;;;;;;;5059056;28;20144;-53
2024/03/20 05:27:07;;;;;;;8.35;4.50;;;;;;;;;;5065768;28;20052;-51
2024/03/20 05:29:34;;;;;;;6.97;4.40;;;;;;;;;;5057542;28;20067;-54
2024/03/20 05:32:01;;;;;;;7.45;4.35;;;;;;;;;;5064816;28;20044;-52
2024/03/20 05:34:28;;;;;;;11.35;5.43;;;;;;;;;;5062310;28;20118;-55
2024/03/20 05:36:54;;;;;;;12.32;5.78;;;;;;;;;;5064282;28;20045;-50
2024/03/20 05:39:23;;;;;;;11.68;4.60;;;;;;;;;;5064630;28;20419;-56
2024/03/20 05:41:49;;;;;;;17.50;5.32;;;;;;;;;;5063410;28;20130;-55
2024/03/20 05:44:17;;;;;;;10.48;5.28;;;;;;;;;;5052615;28;20496;-55
2024/03/20 05:46:43;;;;;;;8.27;4.80;;;;;;;;;;5059687;28;20041;-53
2024/03/20 05:49:12;;;;;;;11.20;4.25;;;;;;;;;;5065089;28;20389;-51
2024/03/20 05:51:38;;;;;;;9.93;4.68;;;;;;;;;;5062120;28;20068;-55
2024/03/20 05:54:05;;;;;;;10.25;4.93;;;;;;;;;;5054281;28;20044;-55
2024/03/20 05:56:31;;;;;;;8.70;3.80;;;;;;;;;;5057075;28;20344;-54
2024/03/20 05:58:58;;;;;;;7.65;4.00;;;;;;;;;;5063358;28;20053;-55
2024/03/20 06:01:24;;;;;;;9.23;4.00;;;;;;;;;;5063904;28;20451;-56
2024/03/20 06:03:51;;;;;;;9.13;4.18;;;;;;;;;;5055608;28;20108;-58
2024/03/20 06:06:18;;;;;;;7.20;3.75;;;;;;;;;;5065381;28;20419;-56
2024/03/20 06:08:46;;;;;;;7.45;3.95;;;;;;;;;;5057671;28;20048;-56
2024/03/20 06:11:12;;;;;;;6.80;4.07;;;;;;;;;;5068451;28;20048;-54
2024/03/20 06:13:39;;;;;;;11.63;4.38;;;;;;;;;;5063674;28;20152;-51
2024/03/20 06:16:06;;;;;;;8.82;4.20;;;;;;;;;;5059658;28;20048;-53
2024/03/20 06:18:33;;;;;;;6.50;4.05;;;;;;;;;;5064651;28;20115;-57
2024/03/20 06:20:59;;;;;;;7.50;3.50;;;;;;;;;;5067091;28;20049;-56
2024/03/20 06:23:28;;;;;;;6.45;4.03;;;;;;;;;;5066893;28;20135;-57
2024/03/20 06:25:54;;;;;;;7.07;3.78;;;;;;;;;;5066046;28;20064;-55
2024/03/20 06:28:21;;;;;;;6.80;4.20;;;;;;;;;;5067820;28;20060;-55
2024/03/20 06:30:46;;;;;;;6.65;4.05;;;;;;;;;;5059375;28;20053;-54
2024/03/20 06:33:14;;;;;;;7.32;3.38;;;;;;;;;;5067015;28;20045;-57
2024/03/20 06:35:40;;;;;;;8.40;4.55;;;;;;;;;;5063501;28;20068;-56
2024/03/20 06:38:11;;;;;;;6.85;3.78;;;;;;;;;;5057352;28;20044;-54
2024/03/20 06:40:38;;;;;;;8.27;3.55;;;;;;;;;;5060287;28;20401;-55
2024/03/20 06:43:06;;;;;;;7.20;4.10;;;;;;;;;;5067371;28;20051;-56
2024/03/20 06:45:33;;;;;;;7.88;4.20;;;;;;;;;;5065438;28;20049;-55
2024/03/20 06:48:01;;;;;;;6.70;4.28;;;;;;;;;;5066259;28;20516;-55
2024/03/20 06:50:28;;;;;;;7.47;4.43;;;;;;;;;;5066105;28;20432;-55
2024/03/20 06:52:57;;;;;;;8.27;3.92;;;;;;;;;;5064377;28;20051;-57
2024/03/20 06:55:23;;;;;;;5.55;3.40;;;;;;;;;;5066160;28;20041;-52
2024/03/20 06:57:51;;;;;;;7.63;4.10;;;;;;;;;;5064347;28;20052;-54
2024/03/20 07:00:18;;;;;;;7.00;4.10;;;;;;;;;;5062997;28;20045;-52
2024/03/20 07:02:45;;;;;;;6.72;3.65;;;;;;;;;;5058573;28;20308;-52
2024/03/20 07:05:14;;;;;;;9.80;3.85;;;;;;;;;;5063676;28;20420;-57
2024/03/20 07:07:41;;;;;;;6.25;4.05;;;;;;;;;;5062963;28;20045;-57
2024/03/20 07:10:08;;;;;;;7.30;4.20;;;;;;;;;;5066287;28;20052;-54
2024/03/20 07:12:35;;;;;;;8.25;4.07;;;;;;;;;;5059545;28;20053;-54
2024/03/20 07:15:06;;;;;;;8.43;4.32;;;;;;;;;;5056681;28;20057;-56
2024/03/20 07:17:34;;;;;;;7.15;3.83;;;;;;;;;;5042559;28;20044;-56
2024/03/20 07:19:59;;;;;;;9.68;4.20;;;;;;;;;;5051865;28;20053;-55
2024/03/20 07:22:26;;;;;;;6.93;3.33;;;;;;;;;;5049061;28;20103;-53
2024/03/20 07:24:52;;;;;;;6.65;3.58;;;;;;;;;;5052793;28;20049;-53
2024/03/20 07:27:20;;;;;;;7.25;4.10;;;;;;;;;;5047685;28;20055;-55
2024/03/20 07:29:45;;;;;;;5.55;3.35;;;;;;;;;;5052659;28;20059;-55
2024/03/20 07:32:14;;;;;;;6.38;3.58;;;;;;;;;;5047525;28;20053;-53
2024/03/20 07:34:40;;;;;;;7.72;3.75;;;;;;;;;;5059669;28;20056;-54
2024/03/20 07:37:07;;;;;;;6.63;4.05;;;;;;;;;;5043606;28;20049;-56
2024/03/20 07:39:33;;;;;;;6.80;3.40;;;;;;;;;;5052266;28;20056;-56
2024/03/20 07:42:03;;;;;;;7.93;3.78;;;;;;;;;;5040203;28;20053;-54
2024/03/20 07:44:29;;;;;;;5.55;3.47;;;;;;;;;;5041570;28;20413;-54
2024/03/20 07:46:57;;;;;;;7.43;3.30;;;;;;;;;;5047099;28;20135;-56
2024/03/20 07:49:24;;;;;;;7.05;4.03;;;;;;;;;;5049824;28;20055;-55
2024/03/20 07:51:51;;;;;;;7.10;4.32;;;;;;;;;;5052334;28;20067;-57
2024/03/20 07:54:23;;;;;;;7.88;3.95;;;;;;;;;;5049433;28;20523;-54
2024/03/20 07:56:51;;;;;;;8.25;4.32;;;;;;;;;;5037574;28;20524;-53
2024/03/20 07:59:17;;;;;;;6.10;3.83;;;;;;;;;;5051705;28;20067;-54
2024/03/20 08:01:44;;;;;;;8.43;4.38;;;;;;;;;;5061185;28;20080;-55
2024/03/20 08:04:10;;;;;;;8.73;4.78;;;;;;;;;;5060885;28;20392;-52
2024/03/20 08:06:38;;;;;;;7.00;4.38;;;;;;;;;;5053552;28;20041;-52
2024/03/20 08:09:05;;;;;;;7.28;3.78;;;;;;;;;;5054676;28;20055;-54
2024/03/20 08:11:32;;;;;;;7.53;4.03;;;;;;;;;;5062244;28;20048;-57
2024/03/20 08:13:59;;;;;;;6.43;4.05;;;;;;;;;;5058953;28;20059;-56
2024/03/20 08:16:27;;;;;;;7.72;3.90;;;;;;;;;;5067344;28;20063;-55
2024/03/20 08:18:52;;;;;;;5.90;3.42;;;;;;;;;;5060556;28;20076;-56
2024/03/20 08:21:19;;;;;;;9.90;4.22;;;;;;;;;;5060272;28;20052;-57
2024/03/20 08:23:47;;;;;;;7.93;4.25;;;;;;;;;;5056355;28;20110;-53
2024/03/20 08:26:14;;;;;;;5.22;3.28;;;;;;;;;;5051573;28;20041;-56
2024/03/20 08:28:40;;;;;;;7.45;3.60;;;;;;;;;;5044322;28;20076;-58
2024/03/20 08:31:09;;;;;;;7.43;4.00;;;;;;;;;;5053408;28;20534;-58
2024/03/20 08:33:35;;;;;;;8.40;3.75;;;;;;;;;;5047977;28;20122;-54
2024/03/20 08:36:07;;;;;;;6.63;3.90;;;;;;;;;;5045621;28;20402;-56
2024/03/20 08:38:35;;;;;;;6.80;2.92;;;;;;;;;;5047858;28;20052;-59
2024/03/20 08:41:03;;;;;;;6.32;3.90;;;;;;;;;;5047596;28;20060;-55
2024/03/20 08:43:32;;;;;;;5.68;3.00;;;;;;;;;;5046598;28;20345;-55
2024/03/20 08:45:58;;;;;;;5.88;2.75;;;;;;;;;;5050980;28;20152;-55
2024/03/20 08:48:25;;;;;;;6.05;3.22;;;;;;;;;;5051238;28;20103;-56
2024/03/20 08:50:51;;;;;;;6.28;2.70;;;;;;;;;;5042939;28;20053;-62
2024/03/20 08:53:19;;;;;;;5.45;2.63;;;;;;;;;;5040133;28;20069;-58
2024/03/20 08:55:45;;;;;;;3.92;2.50;;;;;;;;;;5032616;28;20203;-60
2024/03/20 08:58:14;;;;;;;4.63;2.13;;;;;;;;;;5055034;28;20052;-59
2024/03/20 09:00:40;;;;;;;5.03;2.05;;;;;;;;;;5051777;28;20055;-62
2024/03/20 09:03:07;;;;;;;6.55;2.63;;;;;;;;;;5054914;28;20065;-57
2024/03/20 09:05:35;;;;;;;4.03;2.47;;;;;;;;;;5046103;28;20520;-56
2024/03/20 09:08:02;;;;;;;5.97;2.83;;;;;;;;;;5055161;28;20496;-54
2024/03/20 09:10:27;;;;;;;6.38;3.00;;;;;;;;;;5049876;28;20063;-58
2024/03/20 09:12:54;;;;;;;8.75;2.90;;;;;;;;;;5047655;28;20144;-53
2024/03/20 09:15:22;;;;;;;6.15;2.95;;;;;;;;;;5046885;28;20052;-55
2024/03/20 09:17:52;;;;;;;5.28;3.33;;;;;;;;;;5041839;28;20049;-56
2024/03/20 09:20:19;;;;;;;5.28;2.95;;;;;;;;;;5044816;28;20060;-56
2024/03/20 09:22:47;;;;;;;4.55;2.50;;;;;;;;;;5044966;28;20535;-54
2024/03/20 09:25:13;;;;;;;4.32;2.40;;;;;;;;;;5046335;28;20052;-56
2024/03/20 09:27:40;;;;;;;4.53;2.65;;;;;;;;;;5038822;28;20056;-54
2024/03/20 09:30:07;;;;;;;4.68;2.47;;;;;;;;;;5039577;28;20485;-56
2024/03/20 09:32:36;;;;;;;6.53;2.42;;;;;;;;;;5042048;28;20570;-58
2024/03/20 09:35:02;;;;;;;5.25;3.05;;;;;;;;;;5042069;28;20053;-56
2024/03/20 09:37:30;;;;;;;10.88;3.45;;;;;;;;;;5046501;28;20112;-55
2024/03/20 09:39:56;;;;;;;6.30;3.22;;;;;;;;;;5046720;28;20045;-53
2024/03/20 09:42:24;;;;;;;5.97;3.10;;;;;;;;;;5048377;28;20070;-55
2024/03/20 09:44:50;;;;;;;5.07;2.88;;;;;;;;;;5050609;28;20424;-56
2024/03/20 09:47:17;;;;;;;6.32;3.00;;;;;;;;;;5044479;28;20045;-58
2024/03/20 09:49:46;;;;;;;5.68;3.25;;;;;;;;;;5043721;28;20052;-57
2024/03/20 09:52:16;;;;;;;5.47;3.10;;;;;;;;;;5045882;28;20075;-57
2024/03/20 09:54:42;;;;;;;4.22;2.45;;;;;;;;;;5048566;28;20056;-54
2024/03/20 09:57:15;;;;;;;4.38;2.97;;;;;;;;;;5054412;28;20063;-57
2024/03/20 09:59:47;;;;;;;4.97;2.90;;;;;;;;;;5054553;28;20429;-58
2024/03/20 10:02:14;;;;;;;6.07;3.13;;;;;;;;;;5049456;28;20140;-57
2024/03/20 10:04:40;;;;;;;5.03;2.80;;;;;;;;;;5045922;28;20053;-58
2024/03/20 10:07:18;;;;;;;4.65;2.53;;;;;;;;;;5047096;28;20456;-54
2024/03/20 10:09:55;;;;;;;8.85;2.70;;;;;;;;;;5044068;28;20056;-59
2024/03/20 10:12:26;;;;;;;4.80;2.60;;;;;;;;;;5046964;28;20102;-58
2024/03/20 10:14:54;;;;;;;;;;;;;;;;;;5048324;28;20053;-59
2024/03/20 10:17:24;;;;;;;4.43;2.38;;;;;;;;;;5045237;28;19927;-56
2024/03/20 10:19:51;;;;;;;5.60;2.22;;;;;;;;;;5043510;28;20393;-55
2024/03/20 10:22:18;;;;;;;5.93;2.20;;;;;;;;;;5044690;28;20103;-56
2024/03/20 10:24:45;;;;;;;4.03;2.40;;;;;;;;;;5054268;28;20469;-55
2024/03/20 10:27:13;;;;;;;4.82;3.08;;;;;;;;;;5052149;28;20580;-59
2024/03/20 10:29:41;;;;;;;3.58;2.00;;;;;;;;;;5036602;28;20136;-53
2024/03/20 10:32:09;;;;;;;5.72;2.47;;;;;;;;;;5048986;28;20048;-55
2024/03/20 10:34:37;;;;;;;3.28;2.15;;;;;;;;;;5039472;28;20099;-53
2024/03/20 10:37:06;;;;;;;4.60;2.33;;;;;;;;;;5045035;28;20049;-55
2024/03/20 10:39:37;;;;;;;7.50;2.60;;;;;;;;;;5049185;28;20057;-57
2024/03/20 10:42:05;;;;;;;4.53;2.40;;;;;;;;;;5040521;28;20053;-53
2024/03/20 10:44:34;;;;;;;4.47;2.60;;;;;;;;;;5048575;28;20076;-56
2024/03/20 10:47:00;;;;;;;5.03;2.53;;;;;;;;;;5053549;28;20041;-57
2024/03/20 10:49:27;;;;;;;4.55;2.45;;;;;;;;;;5050538;28;20138;-53
2024/03/20 10:51:54;;;;;;;5.78;2.38;;;;;;;;;;5049379;28;20167;-56
2024/03/20 10:54:21;;;;;;;4.50;2.60;;;;;;;;;;5045237;28;20049;-56
2024/03/20 10:56:52;;;;;;;4.20;2.53;;;;;;;;;;5051130;28;20049;-57
2024/03/20 10:59:20;;;;;;;5.13;2.60;;;;;;;;;;5044432;28;20052;-55
2024/03/20 11:01:57;;;;;;;4.82;2.22;;;;;;;;;;5042480;28;20041;-55
2024/03/20 11:04:36;;;;;;;4.65;2.50;;;;;;;;;;5048384;28;20056;-58
2024/03/20 11:07:28;;;;;;;5.10;2.75;;;;;;;;;;5048585;28;20140;-54
2024/03/20 11:09:57;;;;;;;5.07;2.50;;;;;;;;;;5047098;28;20045;-55
2024/03/20 11:12:29;;;;;;;6.00;3.30;;;;;;;;;;5053555;28;20052;-58
2024/03/20 11:14:58;;;;;;;5.30;3.15;;;;;;;;;;5053949;28;20045;-62
2024/03/20 11:17:25;;;;;;;5.30;3.13;;;;;;;;;;5048384;28;20041;-57
2024/03/20 11:19:53;;;;;;;4.03;2.53;;;;;;;;;;5053646;28;20170;-56
2024/03/20 11:22:24;;;;;;;5.18;2.53;;;;;;;;;;5053581;28;20419;-55
2024/03/20 11:24:52;;;;;;;4.53;2.10;;;;;;;;;;5046636;28;20049;-58
2024/03/20 11:27:18;;;;;;;4.13;2.20;;;;;;;;;;5053820;28;20085;-58
2024/03/20 11:29:46;;;;;;;4.25;2.50;;;;;;;;;;5045084;28;20512;-59
2024/03/20 11:32:13;;;;;;;5.00;2.20;;;;;;;;;;5052078;28;20535;-53
2024/03/20 11:34:42;;;;;;;5.05;2.33;;;;;;;;;;5052675;28;20088;-54
2024/03/20 11:37:13;;;;;;;5.28;2.75;;;;;;;;;;5049571;28;20056;-56
2024/03/20 11:39:41;;;;;;;5.28;2.25;;;;;;;;;;5053643;28;20045;-59
2024/03/20 11:42:07;;;;;;;5.93;2.20;;;;;;;;;;5053355;28;20052;-55
2024/03/20 11:44:34;;;;;;;9.88;2.30;;;;;;;;;;5053180;28;20071;-57
2024/03/20 11:47:03;;;;;;;5.22;2.90;;;;;;;;;;5053244;28;20512;-57
2024/03/20 11:49:31;;;;;;;6.18;2.45;;;;;;;;;;5052906;28;20060;-59
2024/03/20 11:51:57;;;;;;;4.32;2.20;;;;;;;;;;5053399;28;20132;-57
2024/03/20 11:54:25;;;;;;;4.20;2.10;;;;;;;;;;5052951;28;20520;-60
2024/03/20 11:56:51;;;;;;;5.10;2.28;;;;;;;;;;5048926;28;20049;-57
2024/03/20 11:59:20;;;;;;;3.78;2.30;;;;;;;;;;5049509;28;20048;-57
2024/03/20 12:01:54;;;;;;;4.32;2.08;;;;;;;;;;5044866;28;20040;-58
2024/03/20 12:04:24;;;;;;;4.63;2.00;;;;;;;;;;5037787;28;20052;-55
2024/03/20 12:06:50;;;;;;;3.85;1.77;;;;;;;;;;5041793;28;20045;-54
2024/03/20 12:09:17;;;;;;;3.42;1.77;;;;;;;;;;5046948;28;20049;-56
2024/03/20 12:11:44;;;;;;;4.72;1.90;;;;;;;;;;5052619;28;20049;-57
2024/03/20 12:14:11;;;;;;;5.28;2.17;;;;;;;;;;5042150;28;20049;-58
2024/03/20 12:16:37;;;;;;;3.85;2.10;;;;;;;;;;5047550;28;20055;-57
2024/03/20 12:19:07;;;;;;;4.13;2.40;;;;;;;;;;5041017;28;20041;-53
2024/03/20 12:21:34;;;;;;;3.25;1.90;;;;;;;;;;5050551;28;20092;-58
2024/03/20 12:24:01;;;;;;;4.78;2.45;;;;;;;;;;5052760;28;20415;-54
2024/03/20 12:26:28;;;;;;;4.20;2.05;;;;;;;;;;5052583;28;20452;-56
2024/03/20 12:28:56;;;;;;;4.85;2.53;;;;;;;;;;5052240;28;20447;-54
2024/03/20 12:31:22;;;;;;;4.10;2.00;;;;;;;;;;5052251;28;20501;-56
2024/03/20 12:33:51;;;;;;;4.20;2.25;;;;;;;;;;5052682;28;20056;-54
2024/03/20 12:36:17;;;;;;;5.28;2.00;;;;;;;;;;5052819;28;20045;-53
2024/03/20 12:38:48;;;;;;;3.95;2.30;;;;;;;;;;5052646;28;20049;-57
2024/03/20 12:41:15;;;;;;;7.55;2.53;;;;;;;;;;5052732;28;20102;-57
2024/03/20 12:43:42;;;;;;;4.78;2.47;;;;;;;;;;5052312;28;20508;-57
2024/03/20 12:46:11;;;;;;;4.25;2.10;;;;;;;;;;5052273;28;20106;-57
2024/03/20 12:48:38;;;;;;;4.80;2.10;;;;;;;;;;5051773;28;20052;-58
2024/03/20 12:51:05;;;;;;;5.30;1.98;;;;;;;;;;5052079;28;20060;-61
2024/03/20 12:53:32;;;;;;;3.80;2.08;;;;;;;;;;5044634;28;20045;-61
2024/03/20 12:56:00;;;;;;;4.75;2.03;;;;;;;;;;5041437;28;20104;-64
2024/03/20 12:58:27;;;;;;;4.03;2.20;;;;;;;;;;5048106;28;20049;-65
2024/03/20 13:00:53;;;;;;;4.47;2.05;;;;;;;;;;5043120;28;20049;-66
2024/03/20 13:03:21;;;;;;;8.55;3.10;;;;;;;;;;5037501;28;20338;-56
2024/03/20 13:05:48;;;;;;;5.40;2.50;;;;;;;;;;5043246;28;20435;-53
2024/03/20 13:08:17;;;;;;;5.15;2.45;;;;;;;;;;5048494;28;20132;-57
2024/03/20 13:10:43;;;;;;;4.22;2.33;;;;;;;;;;5045342;28;20091;-54
2024/03/20 13:13:18;;;;;;;5.45;2.75;;;;;;;;;;5049369;28;20420;-57
2024/03/20 13:15:44;;;;;;;4.72;2.70;;;;;;;;;;5042207;28;20496;-53
2024/03/20 13:18:32;;;;;;;8.77;3.88;;;;;;;;;;5045218;28;20520;-52
2024/03/20 13:20:59;;;;;;;4.60;2.53;;;;;;;;;;5039380;28;20060;-55
2024/03/20 13:23:28;;;;;;;5.10;2.40;;;;;;;;;;5051502;28;20377;-55
2024/03/20 13:25:54;;;;;;;3.58;1.70;;;;;;;;;;5051480;28;20136;-54
2024/03/20 13:28:29;;;;;;;4.85;2.63;;;;;;;;;;5051299;28;20098;-54
2024/03/20 13:30:58;;;;;;;4.32;2.53;;;;;;;;;;5051201;28;20060;-57
2024/03/20 13:33:25;;;;;;;4.43;2.50;;;;;;;;;;5051013;28;20076;-58
2024/03/20 13:35:52;;;;;;;6.22;2.70;;;;;;;;;;5051187;28;20053;-55
2024/03/20 13:38:19;;;;;;;5.72;3.30;;;;;;;;;;5051302;28;20053;-54
2024/03/20 13:41:01;;;;;;;7.07;3.08;;;;;;;;;;5050883;28;20136;-55
2024/03/20 13:43:39;;;;;;;4.32;2.13;;;;;;;;;;5051261;28;20080;-52
2024/03/20 13:46:06;;;;;;;3.90;2.45;;;;;;;;;;5051014;28;20052;-57
2024/03/20 13:48:32;;;;;;;5.00;2.30;;;;;;;;;;5045043;28;20056;-54
2024/03/20 13:50:59;;;;;;;4.22;2.38;;;;;;;;;;5041899;28;20041;-55
2024/03/20 13:53:25;;;;;;;4.55;2.05;;;;;;;;;;5040323;28;20052;-59
2024/03/20 13:55:52;;;;;;;3.80;2.10;;;;;;;;;;5043752;28;20119;-54
2024/03/20 13:58:20;;;;;;;5.75;2.45;;;;;;;;;;5037098;28;20137;-57
2024/03/20 14:00:49;;;;;;;3.75;2.25;;;;;;;;;;5038044;28;20064;-57
2024/03/20 14:03:16;;;;;;;5.30;2.15;;;;;;;;;;5037547;28;20045;-55
2024/03/20 14:05:43;;;;;;;3.67;2.20;;;;;;;;;;5048704;28;20044;-56
2024/03/20 14:08:17;;;;;;;4.78;2.33;;;;;;;;;;5045537;28;20420;-58
2024/03/20 14:10:44;;;;;;;4.30;2.50;;;;;;;;;;5039883;28;20057;-56
2024/03/20 14:13:14;;;;;;;4.80;1.90;;;;;;;;;;5038921;28;20053;-58
2024/03/20 14:15:41;;;;;;;5.15;2.33;;;;;;;;;;5041669;28;20045;-57
2024/03/20 14:18:09;;;;;;;7.63;2.10;;;;;;;;;;5035650;28;20049;-56
2024/03/20 14:20:37;;;;;;;3.80;2.00;;;;;;;;;;5044450;28;20055;-57
2024/03/20 14:23:04;;;;;;;4.28;2.00;;;;;;;;;;5046717;28;20397;-54
2024/03/20 14:25:34;;;;;;;6.10;2.58;;;;;;;;;;5040082;28;20060;-57
2024/03/20 14:28:00;;;;;;;3.88;2.25;;;;;;;;;;5052203;28;20416;-56
2024/03/20 14:30:28;;;;;;;4.43;2.30;;;;;;;;;;5053793;28;20053;-56
2024/03/20 14:32:55;;;;;;;5.75;2.47;;;;;;;;;;5054335;28;20072;-58
2024/03/20 14:35:22;;;;;;;5.15;2.35;;;;;;;;;;5053707;28;20055;-58
2024/03/20 14:37:49;;;;;;;4.38;2.20;;;;;;;;;;5047460;28;20128;-58
2024/03/20 14:40:23;;;;;;;4.70;2.25;;;;;;;;;;5049644;28;20052;-58
2024/03/20 14:42:50;;;;;;;5.82;3.22;;;;;;;;;;5046248;28;20072;-57
2024/03/20 14:45:19;;;;;;;6.30;3.70;;;;;;;;;;5054041;28;20053;-57
2024/03/20 14:47:46;;;;;;;3.85;2.15;;;;;;;;;;5053681;28;20061;-56